createdAt,value
2023-02-11T00:02:15.067Z,13.80
2023-02-11T00:04:42.553Z,13.33
2023-02-11T00:07:10.033Z,13.47
2023-02-11T00:09:39.647Z,13.20
2023-02-11T00:12:07.362Z,13.20
2023-02-11T00:14:34.775Z,12.90
2023-02-11T00:17:02.360Z,13.00
2023-02-11T00:19:29.893Z,13.20
2023-02-11T00:21:57.377Z,13.30
2023-02-11T00:24:24.824Z,12.70
2023-02-11T00:26:53.629Z,13.00
2023-02-11T00:29:21.087Z,12.90
2023-02-11T00:31:48.725Z,12.43
2023-02-11T00:34:16.411Z,13.23
2023-02-11T00:36:43.899Z,13.17
2023-02-11T00:39:11.628Z,12.63
2023-02-11T00:41:39.033Z,13.73
2023-02-11T00:44:07.969Z,12.90
2023-02-11T00:46:35.502Z,13.70
2023-02-11T00:49:03.005Z,13.03
2023-02-11T00:51:30.511Z,13.87
2023-02-11T00:53:57.976Z,14.10
2023-02-11T00:56:25.421Z,12.67
2023-02-11T00:58:53.307Z,14.27
2023-02-11T01:01:22.242Z,13.37
2023-02-11T01:03:49.702Z,13.43
2023-02-11T01:06:17.313Z,13.50
2023-02-11T01:08:45.216Z,13.80
2023-02-11T01:11:14.735Z,13.63
2023-02-11T01:13:42.289Z,15.00
2023-02-11T01:16:10.713Z,15.20
2023-02-11T01:18:39.818Z,15.93
2023-02-11T01:21:07.609Z,15.00
2023-02-11T01:23:35.071Z,15.30
2023-02-11T01:26:02.604Z,16.53
2023-02-11T01:28:31.410Z,15.60
2023-02-11T01:30:58.965Z,16.47
2023-02-11T01:33:26.518Z,16.60
2023-02-11T01:35:55.426Z,16.53
2023-02-11T01:38:24.610Z,16.77
2023-02-11T01:40:54.495Z,16.77
2023-02-11T01:43:22.805Z,16.97
2023-02-11T01:46:18.232Z,18.47
2023-02-11T01:48:50.146Z,17.50
2023-02-11T01:51:24.831Z,18.00
2023-02-11T01:54:11.557Z,17.97
2023-02-11T01:57:01.249Z,16.63
2023-02-11T01:59:32.655Z,17.80
2023-02-11T02:02:06.642Z,18.13
2023-02-11T02:04:39.701Z,18.20
2023-02-11T02:07:14.230Z,18.23
2023-02-11T02:09:47.136Z,17.70
2023-02-11T02:12:14.596Z,18.13
2023-02-11T02:14:43.130Z,18.43
2023-02-11T02:17:24.820Z,18.63
2023-02-11T02:20:19.237Z,18.47
2023-02-11T02:23:34.357Z,19.50
2023-02-11T02:26:47.719Z,18.43
2023-02-11T02:29:48.017Z,18.53
2023-02-11T02:32:31.723Z,18.33
2023-02-11T02:35:07.436Z,18.63
2023-02-11T02:37:41.497Z,19.07
2023-02-11T02:40:13.816Z,18.47
2023-02-11T02:42:42.935Z,18.60
2023-02-11T02:45:12.786Z,18.03
2023-02-11T02:47:41.541Z,18.43
2023-02-11T02:50:10.482Z,16.80
2023-02-11T02:52:45.773Z,17.23
2023-02-11T02:55:23.031Z,17.10
2023-02-11T02:58:06.439Z,17.80
2023-02-11T03:00:44.003Z,17.33
2023-02-11T03:03:21.721Z,18.47
2023-02-11T03:05:54.132Z,17.47
2023-02-11T03:08:29.777Z,17.10
2023-02-11T03:10:58.758Z,17.50
2023-02-11T03:13:33.287Z,19.00
2023-02-11T03:16:05.634Z,18.10
2023-02-11T03:18:37.837Z,16.90
2023-02-11T03:21:08.321Z,17.60
2023-02-11T03:23:40.584Z,17.60
2023-02-11T03:26:24.168Z,17.30
2023-02-11T03:28:59.608Z,17.67
2023-02-11T03:31:31.832Z,17.33
2023-02-11T03:34:05.630Z,18.20
2023-02-11T03:36:40.953Z,18.47
2023-02-11T03:39:12.242Z,17.60
2023-02-11T03:41:41.996Z,18.50
2023-02-11T03:44:11.418Z,19.40
2023-02-11T03:46:41.068Z,18.17
2023-02-11T03:49:13.278Z,19.37
2023-02-11T03:51:41.602Z,19.20
2023-02-11T03:54:14.598Z,18.50
2023-02-11T03:56:49.795Z,18.70
2023-02-11T03:59:17.278Z,18.27
2023-02-11T04:01:44.721Z,18.33
2023-02-11T04:04:13.698Z,18.20
2023-02-11T04:06:41.375Z,16.77
2023-02-11T04:09:08.867Z,17.83
2023-02-11T04:11:36.320Z,18.13
2023-02-11T04:14:04.010Z,17.90
2023-02-11T04:16:31.879Z,16.30
2023-02-11T04:18:59.350Z,17.97
2023-02-11T04:21:28.120Z,16.00
2023-02-11T04:23:55.518Z,17.23
2023-02-11T04:26:23.001Z,17.83
2023-02-11T04:28:50.431Z,18.27
2023-02-11T04:31:18.008Z,18.03
2023-02-11T04:33:45.491Z,18.93
2023-02-11T04:36:13.754Z,19.70
2023-02-11T04:38:42.511Z,20.13
2023-02-11T04:41:09.920Z,18.87
2023-02-11T04:43:37.376Z,18.87
2023-02-11T04:46:04.994Z,18.93
2023-02-11T04:48:32.513Z,19.30
2023-02-11T04:50:59.955Z,19.70
2023-02-11T04:53:27.418Z,20.40
2023-02-11T04:55:56.507Z,19.37
2023-02-11T04:58:24.193Z,18.00
2023-02-11T05:00:51.662Z,18.27
2023-02-11T05:03:19.162Z,18.47
2023-02-11T05:05:46.608Z,18.67
2023-02-11T05:08:14.079Z,18.47
2023-02-11T05:10:41.552Z,18.50
2023-02-11T05:13:10.290Z,18.47
2023-02-11T05:15:37.753Z,16.97
2023-02-11T05:18:05.585Z,17.97
2023-02-11T05:20:33.016Z,16.77
2023-02-11T05:23:00.475Z,15.63
2023-02-11T05:25:28.041Z,17.90
2023-02-11T05:27:55.455Z,18.90
2023-02-11T05:30:24.285Z,16.93
2023-02-11T05:32:51.868Z,18.47
2023-02-11T05:35:19.424Z,16.83
2023-02-11T05:37:46.846Z,18.20
2023-02-11T05:40:14.358Z,18.07
2023-02-11T05:42:42.094Z,18.70
2023-02-11T05:45:10.318Z,18.13
2023-02-11T05:47:39.069Z,19.80
2023-02-11T05:50:07.311Z,20.20
2023-02-11T05:52:34.783Z,19.63
2023-02-11T05:55:02.542Z,20.10
2023-02-11T05:57:29.971Z,20.00
2023-02-11T05:59:57.399Z,18.60
2023-02-11T06:02:24.922Z,18.63
2023-02-11T06:04:53.736Z,19.70
2023-02-11T06:07:21.140Z,19.43
2023-02-11T06:09:48.622Z,20.13
2023-02-11T06:12:16.081Z,19.37
2023-02-11T06:14:43.565Z,20.23
2023-02-11T06:17:12.027Z,19.93
2023-02-11T06:19:40.297Z,19.80
2023-02-11T06:22:09.249Z,20.20
2023-02-11T06:24:58.540Z,20.87
2023-02-11T06:27:24.649Z,21.50
2023-02-11T06:29:52.381Z,22.70
2023-02-11T06:32:39.380Z,21.17
2023-02-11T06:35:10.729Z,21.67
2023-02-11T06:37:40.835Z,20.00
2023-02-11T06:40:08.845Z,22.30
2023-02-11T06:42:38.628Z,21.50
2023-02-11T06:45:08.970Z,21.33
2023-02-11T06:47:36.609Z,21.80
2023-02-11T06:50:04.392Z,21.23
2023-02-11T06:52:31.818Z,22.07
2023-02-11T06:55:01.300Z,21.83
2023-02-11T06:57:28.802Z,20.23
2023-02-11T06:59:56.269Z,21.20
2023-02-11T07:02:23.704Z,21.77
2023-02-11T07:04:51.288Z,20.60
2023-02-11T07:07:18.728Z,20.47
2023-02-11T07:09:46.149Z,19.90
2023-02-11T07:12:14.955Z,20.67
2023-02-11T07:14:42.565Z,22.27
2023-02-11T07:17:10.051Z,21.53
2023-02-11T07:19:37.552Z,21.40
2023-02-11T07:22:05.075Z,21.93
2023-02-11T07:24:32.556Z,20.67
2023-02-11T07:27:00.042Z,20.80
2023-02-11T07:29:28.857Z,21.00
2023-02-11T07:31:56.384Z,21.30
2023-02-11T07:34:23.914Z,21.13
2023-02-11T07:36:51.437Z,20.23
2023-02-11T07:39:19.905Z,19.87
2023-02-11T07:41:48.921Z,20.07
2023-02-11T07:44:16.547Z,20.57
2023-02-11T07:46:45.566Z,19.90
2023-02-11T07:49:13.479Z,18.67
2023-02-11T07:51:41.026Z,19.93
2023-02-11T07:54:09.153Z,19.30
2023-02-11T07:56:36.581Z,19.63
2023-02-11T07:59:05.251Z,20.23
2023-02-11T08:01:33.026Z,20.80
2023-02-11T08:04:03.474Z,19.80
2023-02-11T08:06:32.799Z,20.20
2023-02-11T08:09:06.144Z,19.90
2023-02-11T08:11:34.063Z,20.27
2023-02-11T08:14:01.594Z,21.03
2023-02-11T08:16:31.716Z,20.43
2023-02-11T08:19:03.628Z,19.13
2023-02-11T08:21:31.248Z,19.43
2023-02-11T08:23:59.035Z,19.03
2023-02-11T08:26:28.833Z,18.97
2023-02-11T08:28:58.099Z,19.67
2023-02-11T08:31:28.000Z,18.07
2023-02-11T08:33:58.004Z,18.57
2023-02-11T08:36:28.995Z,19.33
2023-02-11T08:39:12.071Z,18.77
2023-02-11T08:41:44.827Z,17.83
2023-02-11T08:44:12.481Z,17.97
2023-02-11T08:46:39.933Z,18.57
2023-02-11T08:49:07.386Z,19.07
2023-02-11T08:51:36.208Z,18.37
2023-02-11T08:54:03.673Z,17.47
2023-02-11T08:56:33.156Z,18.13
2023-02-11T08:59:00.628Z,17.23
2023-02-11T09:01:30.191Z,18.80
2023-02-11T09:03:58.416Z,18.07
2023-02-11T09:06:26.917Z,18.40
2023-02-11T09:08:57.021Z,18.60
2023-02-11T09:11:28.233Z,17.93
2023-02-11T09:13:55.728Z,18.03
2023-02-11T09:16:25.093Z,18.97
2023-02-11T09:18:53.034Z,18.17
2023-02-11T09:21:21.072Z,18.57
2023-02-11T09:23:49.750Z,19.53
2023-02-11T09:26:20.070Z,19.30
2023-02-11T09:28:48.466Z,19.03
2023-02-11T09:31:18.986Z,20.47
2023-02-11T09:33:48.728Z,19.13
2023-02-11T09:36:19.130Z,19.00
2023-02-11T09:38:47.677Z,19.87
2023-02-11T09:41:28.116Z,19.20
2023-02-11T09:43:58.213Z,20.97
2023-02-11T09:46:28.571Z,20.10
2023-02-11T09:48:57.315Z,19.77
2023-02-11T09:51:34.163Z,20.07
2023-02-11T09:54:06.477Z,20.27
2023-02-11T09:56:35.308Z,20.10
2023-02-11T09:59:02.876Z,19.53
2023-02-11T10:01:40.949Z,19.90
2023-02-11T10:04:20.558Z,20.20
2023-02-11T10:06:51.450Z,20.40
2023-02-11T10:09:35.145Z,20.03
2023-02-11T10:12:25.914Z,19.07
2023-02-11T10:15:15.828Z,18.93
2023-02-11T10:17:55.157Z,17.83
2023-02-11T10:20:32.485Z,18.67
2023-02-11T10:23:02.275Z,17.93
2023-02-11T10:25:35.676Z,18.97
2023-02-11T10:28:14.285Z,18.20
2023-02-11T10:30:47.500Z,19.37
2023-02-11T10:33:23.937Z,18.83
2023-02-11T10:35:51.527Z,19.73
2023-02-11T10:38:19.075Z,19.53
2023-02-11T10:40:46.545Z,19.87
2023-02-11T10:43:16.925Z,20.73
2023-02-11T10:45:47.299Z,18.30
2023-02-11T10:48:38.182Z,20.10
2023-02-11T10:51:14.929Z,19.07
2023-02-11T10:53:42.547Z,17.60
2023-02-11T10:56:13.566Z,19.93
2023-02-11T10:58:47.087Z,17.70
2023-02-11T11:01:24.361Z,18.20
2023-02-11T11:03:53.827Z,18.63
2023-02-11T11:06:31.459Z,18.33
2023-02-11T11:08:59.229Z,16.97
2023-02-11T11:11:27.524Z,17.80
2023-02-11T11:13:59.096Z,17.03
2023-02-11T11:16:28.105Z,18.13
2023-02-11T11:19:17.153Z,17.90
2023-02-11T11:21:46.577Z,18.17
2023-02-11T11:24:19.897Z,17.73
2023-02-11T11:26:50.455Z,18.67
2023-02-11T11:29:26.835Z,17.70
2023-02-11T11:31:56.804Z,18.20
2023-02-11T11:34:29.557Z,18.30
2023-02-11T11:36:59.144Z,18.23
2023-02-11T11:39:30.399Z,17.90
2023-02-11T11:41:59.825Z,18.03
2023-02-11T11:44:31.533Z,17.07
2023-02-11T11:47:26.354Z,18.47
2023-02-11T11:50:11.883Z,18.47
2023-02-11T11:52:47.195Z,18.50
2023-02-11T11:55:20.686Z,17.27
2023-02-11T11:57:48.456Z,16.87
2023-02-11T12:00:21.832Z,16.93
2023-02-11T12:03:05.750Z,17.53
2023-02-11T12:05:39.994Z,17.50
2023-02-11T12:08:18.779Z,17.43
2023-02-11T12:11:00.777Z,17.10
2023-02-11T12:13:40.464Z,16.77
2023-02-11T12:16:20.265Z,16.53
2023-02-11T12:19:31.876Z,15.37
2023-02-11T12:22:10.806Z,15.33
2023-02-11T12:25:09.592Z,15.50
2023-02-11T12:27:49.102Z,14.83
2023-02-11T12:30:35.252Z,14.53
2023-02-11T12:33:15.261Z,13.60
2023-02-11T12:35:52.898Z,14.43
2023-02-11T12:38:54.919Z,15.13
2023-02-11T12:41:53.976Z,14.90
2023-02-11T12:44:31.186Z,15.10
2023-02-11T12:47:08.894Z,16.17
2023-02-11T12:49:52.226Z,16.07
2023-02-11T12:52:30.624Z,16.83
2023-02-11T12:55:03.308Z,16.13
2023-02-11T12:57:34.186Z,16.30
2023-02-11T13:00:06.005Z,16.13
2023-02-11T13:02:43.261Z,15.07
2023-02-11T13:05:22.920Z,15.37
2023-02-11T13:07:52.768Z,15.00
2023-02-11T13:10:27.698Z,15.40
2023-02-11T13:13:15.221Z,15.27
2023-02-11T13:15:44.636Z,14.97
2023-02-11T13:18:25.693Z,13.23
2023-02-11T13:21:06.187Z,12.93
2023-02-11T13:23:41.780Z,12.53
2023-02-11T13:26:17.580Z,13.20
2023-02-11T13:28:51.333Z,13.70
2023-02-11T13:31:20.533Z,13.47
2023-02-11T13:33:49.732Z,11.70
2023-02-11T13:36:21.285Z,12.40
2023-02-11T13:39:03.467Z,13.70
2023-02-11T13:41:34.423Z,16.27
2023-02-11T13:44:21.952Z,15.00
2023-02-11T13:46:54.118Z,15.53
2023-02-11T13:49:24.428Z,16.10
2023-02-11T13:51:55.818Z,15.47
2023-02-11T13:54:28.377Z,15.00
2023-02-11T13:57:34.354Z,15.80
2023-02-11T14:00:03.270Z,14.60
2023-02-11T14:02:51.511Z,13.07
2023-02-11T14:05:54.391Z,13.67
2023-02-11T14:08:42.535Z,13.77
2023-02-11T14:11:44.990Z,14.00
2023-02-11T14:14:26.482Z,13.07
2023-02-11T14:17:34.527Z,13.07
2023-02-11T14:20:04.566Z,14.80
2023-02-11T14:22:44.941Z,12.77
2023-02-11T14:25:24.794Z,12.10
2023-02-11T14:27:57.064Z,11.77
2023-02-11T14:30:33.889Z,13.10
2023-02-11T14:33:37.108Z,12.17
2023-02-11T14:36:13.747Z,11.03
2023-02-11T14:38:53.415Z,9.77
2023-02-11T14:41:25.794Z,8.07
2023-02-11T14:43:56.697Z,7.57
2023-02-11T14:46:27.814Z,6.90
2023-02-11T14:48:59.553Z,6.63
2023-02-11T14:51:31.189Z,6.30
2023-02-11T14:54:03.992Z,6.50
2023-02-11T14:56:34.360Z,7.00
2023-02-11T14:59:02.803Z,6.00
2023-02-11T15:01:33.899Z,6.20
2023-02-11T15:04:02.639Z,6.97
2023-02-11T15:06:33.272Z,7.50
2023-02-11T15:09:05.553Z,6.43
2023-02-11T15:11:39.630Z,6.80
2023-02-11T15:14:10.682Z,9.13
2023-02-11T15:16:43.981Z,8.00
2023-02-11T15:19:22.273Z,7.33
2023-02-11T15:21:51.550Z,7.30
2023-02-11T15:24:25.247Z,7.30
2023-02-11T15:27:02.137Z,7.17
2023-02-11T15:29:38.527Z,7.13
2023-02-11T15:32:08.234Z,6.93
2023-02-11T15:34:36.438Z,7.63
2023-02-11T15:37:04.622Z,7.50
2023-02-11T15:39:36.477Z,7.53
2023-02-11T15:42:23.834Z,7.60
2023-02-11T15:45:09.904Z,7.50
2023-02-11T15:47:37.624Z,7.73
2023-02-11T15:50:05.887Z,8.13
2023-02-11T15:52:34.266Z,7.50
2023-02-11T15:55:03.063Z,7.17
2023-02-11T15:57:31.990Z,7.20
2023-02-11T16:00:04.210Z,7.50
2023-02-11T16:02:35.114Z,6.60
2023-02-11T16:05:06.073Z,7.27
2023-02-11T16:07:42.780Z,7.50
2023-02-11T16:10:30.521Z,7.17
2023-02-11T16:13:16.483Z,7.20
2023-02-11T16:15:53.443Z,6.40
2023-02-11T16:18:37.347Z,6.50
2023-02-11T16:21:07.947Z,6.93
2023-02-11T16:23:38.896Z,7.40
2023-02-11T16:26:09.373Z,7.23
2023-02-11T16:28:38.837Z,7.07
2023-02-11T16:31:07.082Z,7.93
2023-02-11T16:33:34.562Z,7.30
2023-02-11T16:36:02.122Z,7.57
2023-02-11T16:38:30.927Z,8.30
2023-02-11T16:40:58.338Z,7.43
2023-02-11T16:43:25.843Z,7.53
2023-02-11T16:45:54.639Z,7.60
2023-02-11T16:48:22.130Z,7.10
2023-02-11T16:50:53.275Z,8.27
2023-02-11T16:53:24.104Z,7.90
2023-02-11T16:55:52.603Z,8.17
2023-02-11T16:58:20.592Z,7.93
2023-02-11T17:00:49.125Z,8.50
2023-02-11T17:03:24.025Z,8.60
2023-02-11T17:05:55.765Z,8.53
2023-02-11T17:08:24.248Z,8.70
2023-02-11T17:10:52.065Z,8.63
2023-02-11T17:13:20.109Z,8.47
2023-02-11T17:15:47.568Z,9.00
2023-02-11T17:18:15.114Z,8.83
2023-02-11T17:20:43.996Z,9.43
2023-02-11T17:23:11.471Z,11.33
2023-02-11T17:25:39.105Z,11.20
2023-02-11T17:28:07.308Z,11.30
2023-02-11T17:30:34.943Z,11.67
2023-02-11T17:33:02.611Z,10.63
2023-02-11T17:35:30.039Z,10.97
2023-02-11T17:37:59.110Z,10.60
2023-02-11T17:40:26.573Z,11.17
2023-02-11T17:42:53.993Z,10.63
2023-02-11T17:45:22.518Z,10.60
2023-02-11T17:47:50.160Z,11.00
2023-02-11T17:50:17.805Z,10.50
2023-02-11T17:52:45.282Z,11.23
2023-02-11T17:55:14.122Z,10.33
2023-02-11T17:57:41.912Z,10.33
2023-02-11T18:00:10.666Z,10.23
2023-02-11T18:02:38.109Z,11.03
2023-02-11T18:05:06.434Z,10.00
2023-02-11T18:07:33.931Z,10.10
2023-02-11T18:10:01.527Z,10.93
2023-02-11T18:12:30.348Z,11.50
2023-02-11T18:14:58.326Z,11.73
2023-02-11T18:17:26.525Z,11.10
2023-02-11T18:19:56.878Z,11.37
2023-02-11T18:22:25.368Z,11.47
2023-02-11T18:24:53.244Z,11.23
2023-02-11T18:27:21.077Z,11.33
2023-02-11T18:29:50.134Z,11.27
2023-02-11T18:32:17.581Z,10.73
2023-02-11T18:34:45.094Z,10.97
2023-02-11T18:37:14.089Z,11.97
2023-02-11T18:39:42.236Z,11.70
2023-02-11T18:42:09.762Z,11.00
2023-02-11T18:44:37.572Z,12.03
2023-02-11T18:47:06.397Z,11.47
2023-02-11T18:49:36.024Z,11.30
2023-02-11T18:52:03.515Z,12.00
2023-02-11T18:54:30.973Z,11.97
2023-02-11T18:56:58.472Z,10.97
2023-02-11T18:59:25.939Z,11.67
2023-02-11T19:01:53.377Z,12.30
2023-02-11T19:04:23.117Z,11.03
2023-02-11T19:06:50.768Z,10.63
2023-02-11T19:09:20.328Z,10.50
2023-02-11T19:11:49.012Z,11.07
2023-02-11T19:14:18.865Z,10.93
2023-02-11T19:16:47.208Z,11.20
2023-02-11T19:19:15.207Z,11.83
2023-02-11T19:21:45.420Z,12.10
2023-02-11T19:24:15.412Z,11.87
2023-02-11T19:26:43.841Z,11.40
2023-02-11T19:29:11.771Z,10.93
2023-02-11T19:31:40.341Z,11.90
2023-02-11T19:34:08.437Z,12.77
2023-02-11T19:36:36.573Z,12.97
2023-02-11T19:39:06.428Z,13.03
2023-02-11T19:41:34.460Z,11.53
2023-02-11T19:44:02.597Z,12.63
2023-02-11T19:46:32.548Z,12.53
2023-02-11T19:49:00.729Z,12.63
2023-02-11T19:51:28.685Z,12.10
2023-02-11T19:53:56.175Z,12.40
2023-02-11T19:56:25.069Z,11.70
2023-02-11T19:58:52.477Z,11.90
2023-02-11T20:01:21.853Z,14.53
2023-02-11T20:03:50.767Z,12.67
2023-02-11T20:06:23.136Z,13.53
2023-02-11T20:08:57.192Z,12.10
2023-02-11T20:11:28.307Z,12.43
2023-02-11T20:13:56.336Z,11.33
2023-02-11T20:16:36.816Z,12.07
2023-02-11T20:19:16.754Z,11.83
2023-02-11T20:21:46.919Z,11.90
2023-02-11T20:24:15.074Z,11.57
2023-02-11T20:26:45.189Z,10.67
2023-02-11T20:29:12.776Z,12.03
2023-02-11T20:31:40.305Z,12.23
2023-02-11T20:34:08.082Z,11.57
2023-02-11T20:36:37.920Z,10.83
2023-02-11T20:39:06.855Z,11.47
2023-02-11T20:41:39.149Z,11.70
2023-02-11T20:44:10.784Z,11.17
2023-02-11T20:46:41.013Z,11.00
2023-02-11T20:49:08.997Z,11.00
2023-02-11T20:51:37.457Z,11.10
2023-02-11T20:54:06.337Z,10.90
2023-02-11T20:56:36.917Z,11.70
2023-02-11T20:59:06.094Z,10.67
2023-02-11T21:01:36.722Z,11.57
2023-02-11T21:04:07.103Z,11.77
2023-02-11T21:06:37.131Z,11.63
2023-02-11T21:09:05.853Z,11.20
2023-02-11T21:11:33.702Z,10.60
2023-02-11T21:14:01.813Z,10.80
2023-02-11T21:16:29.646Z,11.17
2023-02-11T21:18:58.617Z,10.80
2023-02-11T21:21:26.139Z,11.30
2023-02-11T21:23:53.629Z,12.13
2023-02-11T21:26:21.048Z,10.93
2023-02-11T21:28:49.745Z,11.30
2023-02-11T21:31:21.349Z,11.37
2023-02-11T21:33:49.166Z,11.00
2023-02-11T21:36:18.432Z,11.67
2023-02-11T21:38:46.410Z,11.33
2023-02-11T21:41:14.061Z,11.37
2023-02-11T21:43:41.502Z,12.20
2023-02-11T21:46:11.060Z,12.63
2023-02-11T21:48:39.107Z,12.87
2023-02-11T21:51:08.429Z,13.63
2023-02-11T21:53:37.286Z,12.80
2023-02-11T21:56:06.712Z,12.80
2023-02-11T21:58:34.653Z,13.23
2023-02-11T22:01:02.472Z,13.50
2023-02-11T22:03:29.912Z,13.23
2023-02-11T22:05:57.621Z,12.73
2023-02-11T22:08:25.228Z,13.80
2023-02-11T22:10:54.145Z,12.73
2023-02-11T22:13:21.557Z,13.83
2023-02-11T22:15:58.568Z,13.43
2023-02-11T22:18:26.045Z,12.83
2023-02-11T22:21:00.780Z,12.10
2023-02-11T22:23:28.669Z,12.53
2023-02-11T22:25:57.598Z,13.67
2023-02-11T22:28:25.931Z,13.57
2023-02-11T22:30:55.078Z,13.37
2023-02-11T22:33:23.174Z,12.37
2023-02-11T22:35:58.142Z,12.50
2023-02-11T22:38:25.709Z,11.70
2023-02-11T22:40:53.603Z,12.03
2023-02-11T22:43:22.736Z,12.67
2023-02-11T22:45:50.441Z,13.67
2023-02-11T22:48:20.749Z,12.80
2023-02-11T22:50:49.585Z,14.37
2023-02-11T22:53:17.016Z,14.63
2023-02-11T22:55:44.491Z,16.23
2023-02-11T22:58:12.441Z,15.97
2023-02-11T23:00:42.281Z,16.67
2023-02-11T23:03:11.701Z,15.67
2023-02-11T23:05:39.890Z,14.93
2023-02-11T23:08:08.242Z,14.57
2023-02-11T23:10:36.064Z,13.97
2023-02-11T23:13:04.356Z,13.43
2023-02-11T23:15:32.321Z,13.47
2023-02-11T23:18:01.133Z,13.93
2023-02-11T23:20:28.715Z,12.10
2023-02-11T23:22:56.221Z,12.00
2023-02-11T23:25:23.636Z,12.87
2023-02-11T23:27:51.089Z,12.50
2023-02-11T23:30:19.601Z,14.40
2023-02-11T23:32:47.070Z,13.70
2023-02-11T23:35:22.029Z,14.57
2023-02-11T23:37:50.128Z,14.63
2023-02-11T23:40:18.447Z,14.20
2023-02-11T23:42:47.484Z,13.63
2023-02-11T23:45:15.384Z,13.60
2023-02-11T23:47:42.802Z,13.97
2023-02-11T23:50:12.687Z,15.03
2023-02-11T23:52:41.456Z,13.37
2023-02-11T23:55:09.482Z,14.17
2023-02-11T23:57:37.216Z,14.57
